EDDR

Saarbrücken Airport

Saarbrücken, Germany
TAF EDDR 162300Z 1700/1724 23012KT CAVOK BECMG 1700/1704 BKN012 TEMPO 1701/1708 24015G25KT RA BKN008 BECMG 1709/1711 SCT014 TEMPO 1709/1718 26015G25KT SHRA BKN014CB PROB30 TEMPO 1715/1724 4000 SHRASN BKN014CB
Issued Valid From Valid To
Jan-16 @ 23:00 UTC
(7 hours ago)
Jan-17 @ 00:00 UTC
(6 hours ago)
Jan-18 @ 00:00 UTC
(in 18 hours)
Jan-17 @ 00:00 to Jan-18 @ 00:00
TAF EDDR 162300Z 1700/1724 23012KT CAVOK
Wind Visibility Clouds Conditions
230° at 12 knots 10,000+ meters
  • No significant clouds
Becoming Jan-17 @ 00:00 to Jan-17 @ 09:00
BECMG 1700/1704 BKN012
Wind Visibility Clouds Conditions
230° at 12 knots 10,000+ meters
  • Broken at 1,200' AGL
Temporary Jan-17 @ 01:00 to Jan-17 @ 08:00
TEMPO 1701/1708 24015G25KT RA BKN008
Wind Clouds Conditions
240° at 15 knots
 Gusting to 25 knots
  • Broken at 800' AGL
  • Rain
Temporary Jan-17 @ 09:00 to Jan-17 @ 18:00
TEMPO 1709/1718 26015G25KT SHRA BKN014CB
Wind Clouds Conditions
260° at 15 knots
 Gusting to 25 knots
  • Broken at 1,400' AGL
  • Rain
Becoming Jan-17 @ 09:00 to Jan-18 @ 00:00
BECMG 1709/1711 SCT014
Wind Visibility Clouds Conditions
230° at 12 knots 10,000+ meters
  • Scattered at 1,400' AGL
Temporary  (Probability 30%) Jan-17 @ 15:00 to Jan-18 @ 00:00
PROB30 TEMPO 1715/1724 4000 SHRASN BKN014CB
Visibility Clouds Conditions
4,007 meters
  • Broken at 1,400' AGL
  • Rain
  • Snow
TAF EDDR 162300Z 1700/1724 23012KT CAVOK BECMG 1700/1704 BKN012 TEMPO 1701/1708 24015G25KT RA BKN008 BECMG 1709/1711 SCT014 TEMPO 1709/1718 26015G25KT SHRA BKN014CB PROB30 TEMPO 1715/1724 4000 SHRASN BKN014CB
Issued Jan-16 @ 23:00 UTC
(7 hours ago)
Valid From Jan-17 @ 00:00 UTC
(6 hours ago)
Valid To Jan-18 @ 00:00 UTC
(in 18 hours)
Jan-17 @ 00:00 - Jan-18 @ 00:00
Wind Visibility
230° at 12 knots 10,000+ meters
Clouds
  • No significant clouds
Conditions
Becoming Jan-17 @ 00:00 - Jan-17 @ 09:00
Wind Visibility
230° at 12 knots 10,000+ meters
Clouds
  • Broken at 1,200' AGL
Conditions
Temporary Jan-17 @ 01:00 - Jan-17 @ 08:00
Wind
240° at 15 knots
 Gusting to 25 knots
Clouds
  • Broken at 800' AGL
Conditions
  • Rain
Temporary Jan-17 @ 09:00 - Jan-17 @ 18:00
Wind
260° at 15 knots
 Gusting to 25 knots
Clouds
  • Broken at 1,400' AGL
Conditions
  • Rain
Becoming Jan-17 @ 09:00 - Jan-18 @ 00:00
Wind Visibility
230° at 12 knots 10,000+ meters
Clouds
  • Scattered at 1,400' AGL
Conditions
Probability 30% Temporary Jan-17 @ 15:00 - Jan-18 @ 00:00
Clouds
  • Broken at 1,400' AGL
Conditions
  • Rain
  • Snow